createdAt,value
2022-10-10T00:01:40.471Z,13.82
2022-10-10T00:04:08.362Z,13.75
2022-10-10T00:06:36.297Z,13.90
2022-10-10T00:09:06.382Z,13.91
2022-10-10T00:11:34.563Z,13.85
2022-10-10T00:14:02.535Z,13.73
2022-10-10T00:16:30.522Z,13.78
2022-10-10T00:18:58.520Z,13.63
2022-10-10T00:21:26.493Z,13.87
2022-10-10T00:23:54.401Z,14.06
2022-10-10T00:26:23.718Z,14.15
2022-10-10T00:28:51.622Z,13.95
2022-10-10T00:31:19.557Z,14.00
2022-10-10T00:33:47.474Z,13.90
2022-10-10T00:36:15.920Z,14.09
2022-10-10T00:38:43.889Z,14.23
2022-10-10T00:41:11.846Z,13.96
2022-10-10T00:43:41.207Z,14.18
2022-10-10T00:46:09.433Z,14.23
2022-10-10T00:48:40.778Z,14.03
2022-10-10T00:51:12.660Z,14.03
2022-10-10T00:53:44.039Z,13.97
2022-10-10T00:56:13.940Z,14.14
2022-10-10T00:58:49.489Z,14.23
2022-10-10T01:01:17.493Z,14.14
2022-10-10T01:03:45.454Z,14.14
2022-10-10T01:06:13.575Z,13.99
2022-10-10T01:08:41.906Z,14.11
2022-10-10T01:11:24.254Z,14.06
2022-10-10T01:14:00.497Z,13.93
2022-10-10T01:16:37.822Z,14.06
2022-10-10T01:19:25.622Z,14.01
2022-10-10T01:22:05.368Z,13.85
2022-10-10T01:24:51.144Z,13.73
2022-10-10T01:27:31.018Z,13.74
2022-10-10T01:30:04.720Z,13.77
2022-10-10T01:32:37.154Z,13.72
2022-10-10T01:35:14.838Z,13.77
2022-10-10T01:37:49.792Z,13.90
2022-10-10T01:40:26.182Z,13.82
2022-10-10T01:42:56.846Z,13.63
2022-10-10T01:45:27.804Z,13.69
2022-10-10T01:47:58.876Z,13.49
2022-10-10T01:50:28.829Z,13.70
2022-10-10T01:53:09.940Z,13.77
2022-10-10T01:55:54.985Z,13.76
2022-10-10T01:58:45.730Z,13.62
2022-10-10T02:01:22.802Z,13.50
2022-10-10T02:03:57.225Z,13.61
2022-10-10T02:06:31.165Z,13.64
2022-10-10T02:09:05.429Z,13.62
2022-10-10T02:11:36.709Z,13.47
2022-10-10T02:14:13.290Z,13.44
2022-10-10T02:16:46.663Z,13.59
2022-10-10T02:19:19.528Z,13.53
2022-10-10T02:21:49.222Z,13.59
2022-10-10T02:24:17.363Z,13.62
2022-10-10T02:26:49.841Z,13.59
2022-10-10T02:29:21.157Z,13.53
2022-10-10T02:31:57.652Z,13.44
2022-10-10T02:34:29.298Z,13.34
2022-10-10T02:37:01.928Z,13.41
2022-10-10T02:39:33.495Z,13.37
2022-10-10T02:42:01.414Z,13.08
2022-10-10T02:44:29.401Z,13.33
2022-10-10T02:46:59.006Z,13.27
2022-10-10T02:49:29.964Z,13.34
2022-10-10T02:51:58.059Z,13.38
2022-10-10T02:54:26.627Z,13.41
2022-10-10T02:56:54.893Z,13.53
2022-10-10T02:59:22.851Z,13.45
2022-10-10T03:01:50.854Z,13.38
2022-10-10T03:04:20.207Z,13.37
2022-10-10T03:06:48.126Z,13.28
2022-10-10T03:09:16.121Z,13.42
2022-10-10T03:11:44.131Z,13.27
2022-10-10T03:14:12.071Z,13.31
2022-10-10T03:16:40.044Z,13.50
2022-10-10T03:19:08.742Z,13.39
2022-10-10T03:21:39.509Z,13.22
2022-10-10T03:24:07.705Z,13.35
2022-10-10T03:26:35.627Z,13.45
2022-10-10T03:29:03.872Z,13.61
2022-10-10T03:31:32.564Z,13.64
2022-10-10T03:34:00.649Z,13.74
2022-10-10T03:36:28.546Z,13.64
2022-10-10T03:38:57.833Z,13.33
2022-10-10T03:41:25.903Z,13.54
2022-10-10T03:43:53.849Z,13.67
2022-10-10T03:46:21.991Z,13.53
2022-10-10T03:48:50.141Z,13.35
2022-10-10T03:51:18.049Z,13.45
2022-10-10T03:53:46.009Z,13.47
2022-10-10T03:56:15.356Z,13.59
2022-10-10T03:58:43.296Z,13.54
2022-10-10T04:01:11.352Z,13.46
2022-10-10T04:03:39.783Z,13.52
2022-10-10T04:06:08.277Z,13.69
2022-10-10T04:08:36.213Z,13.77
2022-10-10T04:11:04.124Z,13.59
2022-10-10T04:13:33.432Z,13.51
2022-10-10T04:16:01.346Z,13.76
2022-10-10T04:18:29.242Z,13.85
2022-10-10T04:20:57.182Z,13.79
2022-10-10T04:23:25.101Z,13.50
2022-10-10T04:25:54.005Z,13.36
2022-10-10T04:28:22.017Z,13.58
2022-10-10T04:30:51.610Z,13.39
2022-10-10T04:33:19.521Z,13.52
2022-10-10T04:35:50.217Z,13.64
2022-10-10T04:38:19.880Z,13.66
2022-10-10T04:40:50.006Z,13.75
2022-10-10T04:43:18.041Z,13.75
2022-10-10T04:45:46.000Z,13.66
2022-10-10T04:48:15.383Z,13.66
2022-10-10T04:50:43.298Z,13.55
2022-10-10T04:53:11.729Z,13.64
2022-10-10T04:55:39.645Z,13.62
2022-10-10T04:58:07.576Z,13.58
2022-10-10T05:00:35.513Z,13.33
2022-10-10T05:03:03.443Z,13.22
2022-10-10T05:05:33.456Z,13.31
2022-10-10T05:08:01.374Z,13.52
2022-10-10T05:10:29.296Z,13.66
2022-10-10T05:12:57.240Z,13.71
2022-10-10T05:15:25.161Z,13.57
2022-10-10T05:17:53.070Z,13.67
2022-10-10T05:20:20.993Z,13.81
2022-10-10T05:22:50.510Z,13.79
2022-10-10T05:25:18.642Z,13.62
2022-10-10T05:27:46.615Z,13.82
2022-10-10T05:30:15.335Z,13.80
2022-10-10T05:32:43.570Z,13.91
2022-10-10T05:35:11.591Z,13.90
2022-10-10T05:37:39.649Z,13.93
2022-10-10T05:40:10.304Z,13.97
2022-10-10T05:42:38.221Z,13.80
2022-10-10T05:45:06.899Z,13.89
2022-10-10T05:47:34.806Z,13.88
2022-10-10T05:50:02.739Z,13.76
2022-10-10T05:52:31.255Z,13.87
2022-10-10T05:54:59.170Z,13.99
2022-10-10T05:57:28.487Z,13.71
2022-10-10T05:59:56.365Z,14.11
2022-10-10T06:02:24.301Z,14.29
2022-10-10T06:04:52.227Z,14.24
2022-10-10T06:07:20.172Z,14.25
2022-10-10T06:09:48.067Z,14.40
2022-10-10T06:12:16.118Z,14.13
2022-10-10T06:14:45.410Z,14.44
2022-10-10T06:17:13.304Z,14.34
2022-10-10T06:19:41.204Z,14.54
2022-10-10T06:22:09.149Z,14.52
2022-10-10T06:24:37.106Z,14.30
2022-10-10T06:27:05.385Z,14.47
2022-10-10T06:29:33.321Z,14.37
2022-10-10T06:32:02.774Z,14.22
2022-10-10T06:34:30.731Z,14.36
2022-10-10T06:36:58.679Z,14.68
2022-10-10T06:39:26.813Z,15.01
2022-10-10T06:41:54.722Z,15.10
2022-10-10T06:44:22.868Z,15.42
2022-10-10T06:46:50.789Z,15.41
2022-10-10T06:49:20.133Z,15.39
2022-10-10T06:51:48.059Z,15.47
2022-10-10T06:54:16.454Z,15.54
2022-10-10T06:56:44.556Z,15.29
2022-10-10T06:59:12.502Z,15.28
2022-10-10T07:01:40.476Z,15.62
2022-10-10T07:04:08.398Z,15.64
2022-10-10T07:06:37.772Z,15.70
2022-10-10T07:09:05.804Z,15.72
2022-10-10T07:11:33.846Z,15.41
2022-10-10T07:14:01.778Z,15.47
2022-10-10T07:16:29.689Z,15.65
2022-10-10T07:18:57.594Z,15.68
2022-10-10T07:21:25.482Z,15.93
2022-10-10T07:23:54.769Z,16.19
2022-10-10T07:26:22.871Z,16.28
2022-10-10T07:28:50.956Z,16.46
2022-10-10T07:31:19.190Z,16.11
2022-10-10T07:33:50.715Z,16.18
2022-10-10T07:36:19.794Z,16.13
2022-10-10T07:38:51.929Z,16.46
2022-10-10T07:41:22.107Z,16.81
2022-10-10T07:43:54.904Z,16.79
2022-10-10T07:46:23.131Z,16.86
2022-10-10T07:48:51.262Z,16.72
2022-10-10T07:51:19.388Z,16.89
2022-10-10T07:53:47.402Z,16.83
2022-10-10T07:56:15.321Z,16.93
2022-10-10T07:58:44.627Z,17.13
2022-10-10T08:01:14.090Z,17.13
2022-10-10T08:03:42.106Z,16.84
2022-10-10T08:06:11.785Z,16.92
2022-10-10T08:08:49.923Z,16.78
2022-10-10T08:11:19.999Z,17.07
2022-10-10T08:13:49.965Z,17.44
2022-10-10T08:16:18.007Z,17.69
2022-10-10T08:18:46.064Z,17.64
2022-10-10T08:21:15.824Z,17.49
2022-10-10T08:23:43.813Z,17.36
2022-10-10T08:26:14.155Z,17.32
2022-10-10T08:28:42.205Z,17.65
2022-10-10T08:31:13.669Z,17.69
2022-10-10T08:33:42.565Z,17.32
2022-10-10T08:36:12.438Z,17.27
2022-10-10T08:38:40.385Z,17.68
2022-10-10T08:41:11.194Z,17.78
2022-10-10T08:43:43.802Z,17.97
2022-10-10T08:46:19.535Z,17.96
2022-10-10T08:48:50.545Z,17.74
2022-10-10T08:51:27.666Z,17.59
2022-10-10T08:53:59.008Z,17.44
2022-10-10T08:56:30.553Z,17.67
2022-10-10T08:59:03.808Z,17.82
2022-10-10T09:02:18.347Z,18.01
2022-10-10T09:04:27.433Z,18.11
2022-10-10T09:07:10.021Z,17.98
2022-10-10T09:09:44.863Z,18.09
2022-10-10T09:12:27.693Z,18.38
2022-10-10T09:15:03.464Z,18.51
2022-10-10T09:17:41.761Z,18.45
2022-10-10T09:20:24.254Z,18.12
2022-10-10T09:22:56.774Z,18.19
2022-10-10T09:25:28.708Z,18.02
2022-10-10T09:28:02.866Z,18.15
2022-10-10T09:30:35.184Z,18.18
2022-10-10T09:33:10.751Z,18.48
2022-10-10T09:35:40.495Z,18.38
2022-10-10T09:38:30.961Z,18.62
2022-10-10T09:41:03.644Z,18.74
2022-10-10T09:43:34.993Z,18.70
2022-10-10T09:46:03.277Z,18.30
2022-10-10T09:48:34.303Z,18.31
2022-10-10T09:51:05.018Z,18.10
2022-10-10T09:53:32.986Z,18.19
2022-10-10T09:56:01.470Z,18.17
2022-10-10T09:58:35.474Z,18.01
2022-10-10T10:01:19.147Z,18.22
2022-10-10T10:04:27.302Z,18.24
2022-10-10T10:07:06.950Z,18.26
2022-10-10T10:09:35.158Z,18.35
2022-10-10T10:12:06.127Z,18.25
2022-10-10T10:14:39.777Z,18.48
2022-10-10T10:17:12.851Z,18.70
2022-10-10T10:19:44.406Z,18.64
2022-10-10T10:22:34.035Z,18.64
2022-10-10T10:25:33.324Z,18.92
2022-10-10T10:28:18.106Z,19.17
2022-10-10T10:30:46.637Z,18.98
2022-10-10T10:33:24.654Z,19.00
2022-10-10T10:36:02.102Z,19.12
2022-10-10T10:38:42.029Z,19.34
2022-10-10T10:41:18.638Z,18.90
2022-10-10T10:44:07.119Z,18.75
2022-10-10T10:46:46.298Z,19.08
2022-10-10T10:49:18.795Z,18.94
2022-10-10T10:52:11.327Z,19.07
2022-10-10T10:55:04.742Z,19.17
2022-10-10T10:58:10.332Z,19.24
2022-10-10T11:01:20.967Z,19.12
2022-10-10T11:05:17.265Z,19.30
2022-10-10T11:07:17.685Z,19.22
2022-10-10T11:09:50.407Z,19.29
2022-10-10T11:12:31.998Z,19.59
2022-10-10T11:15:07.214Z,19.26
2022-10-10T11:17:42.174Z,19.66
2022-10-10T11:20:22.116Z,19.59
2022-10-10T11:22:56.665Z,19.67
2022-10-10T11:25:30.311Z,19.43
2022-10-10T11:28:02.592Z,19.42
2022-10-10T11:30:37.037Z,19.57
2022-10-10T11:33:12.746Z,19.70
2022-10-10T11:35:47.269Z,19.76
2022-10-10T11:38:21.781Z,19.71
2022-10-10T11:40:55.425Z,19.69
2022-10-10T11:43:35.037Z,19.50
2022-10-10T11:46:12.824Z,19.56
2022-10-10T11:48:49.192Z,19.36
2022-10-10T11:51:28.954Z,19.56
2022-10-10T11:54:01.298Z,19.37
2022-10-10T11:56:34.518Z,19.37
2022-10-10T11:59:08.802Z,19.35
2022-10-10T12:01:42.798Z,19.43
2022-10-10T12:04:10.749Z,19.59
2022-10-10T12:06:42.461Z,19.44
2022-10-10T12:09:17.486Z,19.44
2022-10-10T12:11:53.662Z,19.34
2022-10-10T12:14:24.138Z,19.53
2022-10-10T12:16:53.718Z,19.62
2022-10-10T12:19:23.723Z,19.55
2022-10-10T12:21:57.821Z,19.41
2022-10-10T12:24:26.684Z,19.42
2022-10-10T12:27:29.463Z,19.32
2022-10-10T12:30:26.177Z,19.19
2022-10-10T12:32:56.047Z,19.19
2022-10-10T12:35:44.750Z,19.21
2022-10-10T12:38:30.586Z,19.36
2022-10-10T12:41:10.802Z,19.55
2022-10-10T12:43:42.515Z,19.48
2022-10-10T12:46:19.652Z,19.48
2022-10-10T12:49:00.051Z,19.25
2022-10-10T12:51:29.952Z,19.37
2022-10-10T12:54:02.011Z,19.38
2022-10-10T12:56:42.314Z,19.41
2022-10-10T12:59:28.019Z,19.33
2022-10-10T13:01:59.536Z,19.29
2022-10-10T13:04:29.421Z,19.42
2022-10-10T13:06:59.226Z,19.23
2022-10-10T13:09:35.158Z,19.22
2022-10-10T13:12:05.739Z,19.10
2022-10-10T13:14:41.941Z,19.06
2022-10-10T13:17:24.927Z,19.20
2022-10-10T13:19:55.798Z,19.15
2022-10-10T13:22:24.638Z,19.38
2022-10-10T13:24:53.754Z,19.20
2022-10-10T13:27:23.982Z,19.25
2022-10-10T13:29:52.882Z,19.31
2022-10-10T13:32:23.638Z,19.05
2022-10-10T13:34:57.053Z,19.09
2022-10-10T13:37:25.697Z,18.94
2022-10-10T13:39:54.873Z,18.78
2022-10-10T13:42:31.012Z,18.92
2022-10-10T13:45:00.444Z,18.85
2022-10-10T13:47:52.811Z,18.98
2022-10-10T13:50:27.447Z,19.15
2022-10-10T13:53:24.283Z,18.89
2022-10-10T13:55:59.585Z,18.91
2022-10-10T13:58:29.197Z,18.75
2022-10-10T14:00:58.247Z,18.81
2022-10-10T14:03:27.464Z,18.86
2022-10-10T14:05:57.206Z,18.81
2022-10-10T14:08:28.569Z,18.59
2022-10-10T14:10:58.612Z,18.52
2022-10-10T14:13:26.706Z,18.53
2022-10-10T14:15:55.535Z,18.58
2022-10-10T14:18:25.583Z,18.40
2022-10-10T14:20:55.553Z,18.30
2022-10-10T14:23:24.886Z,18.20
2022-10-10T14:25:53.362Z,18.31
2022-10-10T14:28:26.328Z,18.37
2022-10-10T14:30:54.322Z,18.17
2022-10-10T14:33:22.682Z,18.20
2022-10-10T14:35:53.718Z,18.27
2022-10-10T14:38:21.739Z,17.96
2022-10-10T14:40:51.980Z,18.03
2022-10-10T14:43:20.617Z,18.11
2022-10-10T14:45:51.136Z,18.08
2022-10-10T14:48:19.442Z,17.99
2022-10-10T14:50:49.537Z,18.08
2022-10-10T14:53:17.697Z,18.11
2022-10-10T14:55:46.104Z,18.02
2022-10-10T14:58:18.208Z,18.01
2022-10-10T15:00:47.044Z,17.97
2022-10-10T15:03:15.535Z,17.86
2022-10-10T15:05:43.781Z,17.83
2022-10-10T15:08:15.112Z,17.61
2022-10-10T15:10:43.409Z,17.72
2022-10-10T15:13:12.128Z,17.68
2022-10-10T15:15:41.837Z,17.71
2022-10-10T15:18:32.101Z,17.70
2022-10-10T15:20:58.073Z,17.49
2022-10-10T15:23:27.094Z,17.32
2022-10-10T15:25:55.005Z,17.36
2022-10-10T15:28:23.079Z,17.42
2022-10-10T15:30:52.883Z,17.22
2022-10-10T15:33:20.795Z,17.12
2022-10-10T15:36:08.947Z,17.16
2022-10-10T15:38:38.517Z,17.12
2022-10-10T15:41:09.261Z,16.96
2022-10-10T15:43:45.251Z,16.78
2022-10-10T15:46:14.577Z,16.86
2022-10-10T15:48:42.490Z,16.94
2022-10-10T15:51:10.662Z,16.88
2022-10-10T15:53:38.601Z,16.80
2022-10-10T15:56:10.300Z,16.71
2022-10-10T15:58:39.527Z,16.48
2022-10-10T16:01:12.154Z,16.64
2022-10-10T16:03:42.201Z,16.52
2022-10-10T16:06:10.837Z,16.30
2022-10-10T16:08:39.635Z,16.24
2022-10-10T16:11:09.155Z,16.39
2022-10-10T16:13:39.298Z,16.44
2022-10-10T16:16:09.192Z,16.18
2022-10-10T16:18:40.393Z,16.15
2022-10-10T16:21:12.430Z,16.26
2022-10-10T16:23:40.608Z,16.13
2022-10-10T16:26:14.299Z,16.14
2022-10-10T16:28:42.652Z,16.07
2022-10-10T16:31:13.168Z,16.09
2022-10-10T16:33:42.386Z,16.06
2022-10-10T16:36:13.758Z,15.98
2022-10-10T16:38:42.186Z,15.82
2022-10-10T16:41:28.804Z,15.58
2022-10-10T16:44:01.698Z,15.60
2022-10-10T16:46:29.630Z,15.85
2022-10-10T16:48:59.399Z,15.87
2022-10-10T16:51:30.420Z,15.83
2022-10-10T16:54:01.710Z,15.85
2022-10-10T16:56:30.192Z,15.81
2022-10-10T16:58:59.345Z,15.74
2022-10-10T17:01:27.491Z,15.70
2022-10-10T17:03:55.483Z,15.67
2022-10-10T17:06:24.362Z,15.65
2022-10-10T17:08:57.018Z,15.78
2022-10-10T17:11:25.860Z,15.60
2022-10-10T17:13:54.601Z,15.53
2022-10-10T17:19:14.789Z,15.46
2022-10-10T17:21:42.755Z,15.27
2022-10-10T17:24:12.148Z,15.16
2022-10-10T17:26:41.395Z,14.98
2022-10-10T17:29:09.358Z,15.00
2022-10-10T17:31:37.322Z,14.77
2022-10-10T17:34:05.256Z,14.79
2022-10-10T17:36:33.835Z,14.87
2022-10-10T17:39:01.777Z,14.97
2022-10-10T17:41:33.312Z,14.95
2022-10-10T17:44:01.305Z,15.00
2022-10-10T17:46:36.252Z,15.09
2022-10-10T17:49:05.396Z,14.72
2022-10-10T17:51:33.374Z,14.51
2022-10-10T17:54:02.243Z,14.49
2022-10-10T17:56:31.894Z,14.48
2022-10-10T17:59:01.783Z,14.54
2022-10-10T18:01:31.388Z,14.57
2022-10-10T18:03:59.366Z,14.66
2022-10-10T18:06:29.143Z,14.83
2022-10-10T18:08:58.978Z,14.68
2022-10-10T18:11:29.082Z,14.82
2022-10-10T18:14:00.643Z,14.87
2022-10-10T18:16:30.121Z,14.74
2022-10-10T18:18:59.497Z,14.71
2022-10-10T18:21:28.561Z,14.68
2022-10-10T18:23:56.911Z,14.78
2022-10-10T18:26:26.563Z,14.65
2022-10-10T18:28:56.455Z,14.70
2022-10-10T18:31:27.887Z,14.50
2022-10-10T18:33:56.338Z,14.53
2022-10-10T18:36:28.250Z,14.56
2022-10-10T18:38:59.529Z,14.74
2022-10-10T18:41:34.083Z,14.76
2022-10-10T18:52:40.964Z,14.50
2022-10-10T18:55:10.156Z,14.49
2022-10-10T18:57:40.089Z,14.29
2022-10-10T19:00:09.283Z,14.58
2022-10-10T19:02:38.571Z,14.55
2022-10-10T19:05:07.168Z,14.63
2022-10-10T19:07:35.153Z,14.75
2022-10-10T19:10:04.963Z,14.45
2022-10-10T19:12:32.889Z,14.67
2022-10-10T19:15:00.823Z,14.68
2022-10-10T19:17:32.069Z,14.69
2022-10-10T19:20:01.364Z,14.57
2022-10-10T19:22:29.294Z,14.47
2022-10-10T19:24:57.713Z,14.45
2022-10-10T19:27:25.650Z,14.52
2022-10-10T19:29:53.795Z,14.53
2022-10-10T19:32:21.689Z,14.53
2022-10-10T19:34:49.658Z,14.59
2022-10-10T19:37:20.525Z,14.58
2022-10-10T19:39:48.467Z,14.60
2022-10-10T19:42:16.400Z,14.55
2022-10-10T19:44:44.652Z,14.68
2022-10-10T19:47:12.552Z,14.60
2022-10-10T19:49:40.533Z,14.59
2022-10-10T19:52:08.448Z,14.53
2022-10-10T19:54:37.753Z,14.43
2022-10-10T19:57:05.916Z,14.42
2022-10-10T19:59:33.977Z,14.43
2022-10-10T20:02:01.969Z,14.27
2022-10-10T20:04:29.970Z,14.41
2022-10-10T20:06:57.899Z,14.60
2022-10-10T20:09:27.830Z,14.44
2022-10-10T20:11:57.120Z,14.52
2022-10-10T20:14:25.049Z,14.53
2022-10-10T20:16:53.869Z,14.39
2022-10-10T20:19:21.786Z,14.40
2022-10-10T20:21:49.720Z,14.21
2022-10-10T20:24:18.158Z,14.28
2022-10-10T20:26:46.202Z,14.20
2022-10-10T20:29:15.523Z,14.33
2022-10-10T20:31:43.501Z,14.35
2022-10-10T20:34:11.455Z,14.27
2022-10-10T20:36:39.417Z,14.38
2022-10-10T20:39:09.537Z,14.27
2022-10-10T20:41:39.072Z,14.27
2022-10-10T20:44:08.424Z,14.25
2022-10-10T20:46:42.531Z,14.19
2022-10-10T20:49:14.599Z,14.33
2022-10-10T20:51:48.201Z,14.18
2022-10-10T20:54:18.018Z,14.20
2022-10-10T20:56:46.147Z,14.20
2022-10-10T20:59:14.366Z,14.18
2022-10-10T21:01:45.507Z,14.21
2022-10-10T21:04:15.054Z,14.34
2022-10-10T21:06:43.838Z,14.39
2022-10-10T21:09:13.967Z,14.22
2022-10-10T21:11:42.589Z,14.21
2022-10-10T21:14:11.865Z,14.24
2022-10-10T21:16:41.438Z,14.26
2022-10-10T21:19:12.959Z,14.23
2022-10-10T21:21:40.899Z,14.19
2022-10-10T21:24:12.184Z,14.22
2022-10-10T21:26:40.832Z,14.23
2022-10-10T21:29:09.234Z,13.99
2022-10-10T21:31:39.146Z,13.90
2022-10-10T21:34:10.189Z,13.91
2022-10-10T21:36:39.538Z,13.97
2022-10-10T21:39:07.790Z,14.04
2022-10-10T21:41:36.219Z,14.13
2022-10-10T21:44:04.280Z,14.11
2022-10-10T21:46:36.596Z,13.97
2022-10-10T21:49:07.028Z,13.85
2022-10-10T21:51:38.448Z,13.91
2022-10-10T21:54:08.962Z,14.03
2022-10-10T21:56:37.513Z,13.93
2022-10-10T21:59:05.534Z,14.02
2022-10-10T22:01:33.666Z,14.03
2022-10-10T22:04:03.183Z,13.98
2022-10-10T22:06:32.001Z,14.05
2022-10-10T22:09:01.870Z,14.02
2022-10-10T22:11:33.144Z,14.00
2022-10-10T22:14:02.597Z,14.08
2022-10-10T22:16:31.419Z,14.11
2022-10-10T22:18:59.784Z,14.12
2022-10-10T22:21:31.692Z,14.08
2022-10-10T22:24:01.572Z,13.96
2022-10-10T22:26:31.464Z,14.02
2022-10-10T22:28:59.543Z,13.99
2022-10-10T22:31:29.236Z,14.02
2022-10-10T22:33:57.819Z,14.02
2022-10-10T22:36:25.800Z,13.98
2022-10-10T22:38:53.871Z,13.97
2022-10-10T22:41:21.793Z,13.82
2022-10-10T22:43:51.137Z,13.64
2022-10-10T22:46:19.270Z,13.45
2022-10-10T22:48:47.615Z,13.59
2022-10-10T22:51:17.645Z,13.47
2022-10-10T22:53:47.143Z,13.69
2022-10-10T22:56:17.018Z,13.71
2022-10-10T22:58:45.173Z,13.77
2022-10-10T23:01:17.680Z,13.70
2022-10-10T23:03:45.949Z,13.71
2022-10-10T23:06:14.590Z,13.72
2022-10-10T23:08:42.526Z,13.73
2022-10-10T23:11:10.465Z,13.71
2022-10-10T23:13:39.095Z,13.30
2022-10-10T23:16:07.912Z,12.97
2022-10-10T23:18:37.827Z,13.07
2022-10-10T23:21:05.835Z,13.08
2022-10-10T23:23:33.780Z,13.25
2022-10-10T23:26:06.493Z,13.31
2022-10-10T23:28:35.063Z,13.24
2022-10-10T23:31:04.395Z,13.07
2022-10-10T23:33:35.940Z,13.10
2022-10-10T23:36:09.217Z,13.12
2022-10-10T23:38:37.782Z,13.13
2022-10-10T23:41:06.168Z,13.06
2022-10-10T23:43:34.433Z,12.95
2022-10-10T23:46:02.716Z,12.97
2022-10-10T23:48:31.185Z,12.70
2022-10-10T23:50:59.244Z,12.75
2022-10-10T23:53:28.596Z,12.78
2022-10-10T23:55:56.573Z,12.98
2022-10-10T23:58:24.628Z,13.03
